Information Last Ob Photographs Meteogram Network Table Neighbors Monthly Summaries Observation History Wind Roses Custom Wind Roses Data Calendar Satellite Cloud Product Download

14 August 2022 Observation History, [MDW] CHICAGO, timezone: America/Chicago

Select Date: Time Order:

Show METARs   Show High Frequency MADIS

Previous Day
Time Wind
(mph)
Vis.
(mi.)
Sky Cond.
(100s ft)
Present Wx Temperature (ºF) Relative
Humidity
Pressure Snow
Depth
(in)
Precipitation (in.)
Air Dwpt Feels Like 6 hour altimeter
(in.)
sea level
(mb)
1 hr 3 hr 6 hr
Max.Min.
12:00 AMS 910 FEW035
SCT050
% 29.91
KMDW 140500Z AUTO 18008KT 10SM FEW035 SCT050 24/17 A2991 RMK T02400170 MADISHF
12:05 AMS 1010 FEW035
SCT050
% 29.91
KMDW 140505Z AUTO 18009KT 10SM FEW035 SCT050 24/17 A2991 RMK T02400170 MADISHF
12:10 AMS 1010 FEW035
SCT050
% 29.91
KMDW 140510Z AUTO 18009KT 10SM FEW035 SCT050 24/17 A2991 RMK T02400170 MADISHF
12:15 AMS 1010 FEW035
SCT050
% 29.91
KMDW 140515Z AUTO 18009KT 10SM FEW035 SCT050 24/17 A2991 RMK T02400170 MADISHF
12:20 AMSSW 1010 FEW035
SCT050
% 29.91
KMDW 140520Z AUTO 19009KT 10SM FEW035 SCT050 24/17 A2991 RMK T02400170 MADISHF
12:25 AMS 910 FEW035
SCT050
% 29.91
KMDW 140525Z AUTO 18008KT 10SM FEW035 SCT050 24/17 A2991 RMK T02400170 MADISHF
12:30 AMS 910 FEW035
SCT050
% 29.91
KMDW 140530Z AUTO 18008KT 10SM FEW035 SCT050 24/17 A2991 RMK T02400170 MADISHF
12:35 AMSSW 810 FEW035
SCT050
% 29.9
KMDW 140535Z AUTO 19007KT 10SM FEW035 SCT050 24/17 A2990 RMK T02400170 MADISHF
12:40 AMSSW 810 FEW035
SCT050
% 29.9
KMDW 140540Z AUTO 19007KT 10SM FEW035 SCT050 24/17 A2990 RMK T02400170 MADISHF
12:45 AMSSW 810 FEW035
SCT050
% 29.9
KMDW 140545Z AUTO 19007KT 10SM FEW035 SCT050 24/17 A2990 RMK T02400170 MADISHF
12:50 AMSSW 810 FEW038
SCT050
% 29.9
KMDW 140550Z AUTO 19007KT 10SM FEW038 SCT050 24/17 A2990 RMK T02400170 MADISHF
12:53 AMSSW 12G 1810 FEW038
SCT050
756275 79 74 64% 29.91011.40
KMDW 140553Z 20010G16KT 10SM FEW038 SCT050 24/17 A2990 RMK AO2 SLP114 T02390167 10261 20233 402670206 58015
12:55 AMSSW 1010 FEW038
SCT048
% 29.9
KMDW 140555Z AUTO 20009KT 10SM FEW038 SCT048 24/17 A2990 RMK T02400170 MADISHF
1:00 AMSSW 1010 FEW038
SCT048
% 29.89
KMDW 140600Z AUTO 20009KT 10SM FEW038 SCT048 24/17 A2989 RMK T02400170 MADISHF
1:05 AMSSW 1210 FEW038
SCT048
% 29.89
KMDW 140605Z AUTO 19010KT 10SM FEW038 SCT048 24/17 A2989 RMK T02400170 MADISHF
1:10 AMSSW 910 FEW038
SCT048
% 29.89
KMDW 140610Z AUTO 19008KT 10SM FEW038 SCT048 24/17 A2989 RMK T02400170 MADISHF
1:15 AMSSW 810 FEW038
SCT048
% 29.89
KMDW 140615Z AUTO 19007KT 10SM FEW038 SCT048 23/17 A2989 RMK T02300170 MADISHF
1:20 AMSSW 610 FEW038
SCT048
% 29.89
KMDW 140620Z AUTO 19005KT 10SM FEW038 SCT048 23/17 A2989 RMK T02300170 MADISHF
1:25 AMSSW 810 FEW038
SCT048
% 29.89
KMDW 140625Z AUTO 19007KT 10SM FEW038 SCT048 23/17 A2989 RMK T02300170 MADISHF
1:30 AMS 810 FEW038
SCT048
% 29.89
KMDW 140630Z AUTO 18007KT 10SM FEW038 SCT048 23/17 A2989 RMK T02300170 OCNL LTGICCC DSNT SW CB DSNT SW MADISHF
1:35 AMSSW 810 FEW038
SCT048
% 29.88
KMDW 140635Z AUTO 19007KT 10SM FEW038 SCT048 23/17 A2988 RMK T02300170 OCNL LTGICCC DSNT SW CB DSNT SW MADISHF
1:40 AMSSW 610 FEW038
SCT048
% 29.88
KMDW 140640Z AUTO 19005KT 10SM FEW038 SCT048 23/17 A2988 RMK T02300170 OCNL LTGICCC DSNT SW CB DSNT SW MADISHF
1:45 AMSSW 610 FEW038
SCT048
% 29.88
KMDW 140645Z AUTO 20005KT 10SM FEW038 SCT048 23/17 A2988 RMK T02300170 OCNL LTGICCC DSNT SW CB DSNT SW MADISHF
1:50 AMSSW 610 FEW038
SCT044
% 29.88
KMDW 140650Z AUTO 19005KT 10SM FEW038 SCT044 23/17 A2988 RMK T02300170 OCNL LTGICCC DSNT SW CB DSNT SW MADISHF
1:53 AMSSW 810 FEW038
SCT044
736373 71% 29.881010.90
KMDW 140653Z 19007KT 10SM FEW038 SCT044 23/17 A2988 RMK AO2 SLP109 T02280172
1:55 AMSSW 610 FEW038
SCT044
% 29.88
KMDW 140655Z AUTO 19005KT 10SM FEW038 SCT044 23/17 A2988 RMK T02300170 MADISHF
2:00 AMSSW 610 FEW038
SCT044
% 29.88
KMDW 140700Z AUTO 19005KT 10SM FEW038 SCT044 23/17 A2988 RMK T02300170 MADISHF
2:05 AMSSW 910 FEW038
SCT044
% 29.88
KMDW 140705Z AUTO 19008KT 10SM FEW038 SCT044 23/17 A2988 RMK T02300170 MADISHF
2:10 AMSSW 610 FEW038
SCT044
% 29.88
KMDW 140710Z AUTO 19005KT 10SM FEW038 SCT044 23/17 A2988 RMK T02300170 MADISHF
2:15 AMSSW 610 FEW038
SCT044
% 29.88
KMDW 140715Z AUTO 20005KT 10SM FEW038 SCT044 23/17 A2988 RMK T02300170 MADISHF
2:20 AMSSW 810 FEW038
SCT044
% 29.88
KMDW 140720Z AUTO 20007KT 10SM FEW038 SCT044 23/17 A2988 RMK T02300170 MADISHF
2:25 AMSSW 610 FEW038
SCT044
% 29.88
KMDW 140725Z AUTO 20005KT 10SM FEW038 SCT044 23/17 A2988 RMK T02300170 MADISHF
2:30 AMSSW 810 FEW038
SCT044
% 29.88
KMDW 140730Z AUTO 19007KT 10SM FEW038 SCT044 23/17 A2988 RMK T02300170 MADISHF
2:35 AMSSW 810 FEW038
SCT044
% 29.87
KMDW 140735Z AUTO 19007KT 10SM FEW038 SCT044 23/17 A2987 RMK T02300170 MADISHF
2:40 AMSSW 610 FEW038
SCT044
% 29.87
KMDW 140740Z AUTO 19005KT 10SM FEW038 SCT044 23/17 A2987 RMK T02300170 MADISHF
2:45 AMSSW 610 FEW038
SCT044
% 29.87
KMDW 140745Z AUTO 19005KT 10SM FEW038 SCT044 23/17 A2987 RMK T02300170 MADISHF
2:50 AMS 610 FEW038
SCT044
% 29.87
KMDW 140750Z AUTO 18005KT 10SM FEW038 SCT044 23/17 A2987 RMK T02300170 MADISHF
2:53 AMSSW 710 FEW033
SCT044
736373 71% 29.871010.40
KMDW 140753Z 19006KT 10SM FEW033 SCT044 23/17 A2987 RMK AO2 SLP104 T02280172
2:55 AMSSW 810 FEW033
SCT044
% 29.87
KMDW 140755Z AUTO 19007KT 10SM FEW033 SCT044 23/17 A2987 RMK T02300170 MADISHF
3:00 AMSSW 810 FEW033
SCT044
% 29.87
KMDW 140800Z AUTO 20007KT 10SM FEW033 SCT044 23/17 A2987 RMK T02300170 MADISHF
3:05 AMSSW 610 FEW033
SCT044
% 29.87
KMDW 140805Z AUTO 20005KT 10SM FEW033 SCT044 23/17 A2987 RMK T02300170 MADISHF
3:10 AMSSW 610 FEW033
SCT044
% 29.87
KMDW 140810Z AUTO 19005KT 10SM FEW033 SCT044 23/17 A2987 RMK T02300170 MADISHF
3:15 AMSSW 610 FEW033
SCT044
% 29.87
KMDW 140815Z AUTO 19005KT 10SM FEW033 SCT044 23/17 A2987 RMK T02300170 MADISHF
3:20 AMSSW 810 FEW033
SCT044
% 29.87
KMDW 140820Z AUTO 20007KT 10SM FEW033 SCT044 23/17 A2987 RMK T02300170 MADISHF
3:25 AMSSW 610 SCT028
BKN070
% 29.87
KMDW 140825Z AUTO 19005KT 10SM SCT028 BKN070 22/17 A2987 RMK T02200170 MADISHF
3:30 AMSSW 610 SCT028
BKN070
% 29.86
KMDW 140830Z AUTO 19005KT 10SM SCT028 BKN070 23/17 A2986 RMK T02300170 MADISHF
3:35 AMSSW 610 SCT028
BKN070
% 29.86
KMDW 140835Z AUTO 19005KT 10SM SCT028 BKN070 23/17 A2986 RMK T02300170 MADISHF
3:40 AMSSW 810 FEW028
BKN044
BKN070
% 29.86
KMDW 140840Z AUTO 19007KT 10SM FEW028 BKN044 BKN070 23/17 A2986 RMK T02300170 MADISHF
3:45 AMSSW 810 FEW028
BKN044
BKN070
% 29.86
KMDW 140845Z AUTO 19007KT 10SM FEW028 BKN044 BKN070 22/17 A2986 RMK T02200170 MADISHF
3:50 AMSSW 810 SCT044
BKN070
% 29.86
KMDW 140850Z AUTO 19007KT 10SM SCT044 BKN070 22/17 A2986 RMK T02200170 MADISHF
3:53 AMSSW 810 FEW027
BKN044
BKN070
726372 73% 29.861010.30
KMDW 140853Z 19007KT 10SM FEW027 BKN044 BKN070 22/17 A2986 RMK AO2 SLP103 T02220172 56011
4:00 AMSSW 810 SCT025
BKN044
BKN070
% 29.86
KMDW 140900Z AUTO 19007KT 10SM SCT025 BKN044 BKN070 22/17 A2986 RMK T02200170 MADISHF
4:05 AMSSW 610 SCT025
BKN044
BKN070
% 29.86
KMDW 140905Z AUTO 19005KT 10SM SCT025 BKN044 BKN070 22/17 A2986 RMK T02200170 MADISHF
4:10 AMSSW 610 SCT025
BKN044
BKN070
% 29.86
KMDW 140910Z AUTO 19005KT 10SM SCT025 BKN044 BKN070 22/17 A2986 RMK T02200170 MADISHF
4:15 AMSSW 610 BKN023
OVC044
% 29.86
KMDW 140915Z AUTO 20005KT 10SM BKN023 OVC044 22/17 A2986 RMK T02200170 MADISHF
4:20 AMSSW 610 SCT023
OVC044
% 29.86
KMDW 140920Z AUTO 20005KT 10SM SCT023 OVC044 22/17 A2986 RMK T02200170 MADISHF
4:25 AMSSW 610 SCT023
OVC044
% 29.86
KMDW 140925Z AUTO 20005KT 10SM SCT023 OVC044 22/17 A2986 RMK T02200170 MADISHF
4:30 AMSSW 610 OVC023
% 29.86
KMDW 140930Z AUTO 20005KT 10SM OVC023 22/17 A2986 RMK T02200170 MADISHF
4:36 AMSSW 610 BKN023
OVC041
726372 73% 29.860
KMDW 140936Z 20005KT 10SM BKN023 OVC041 22/17 A2986 RMK AO2 T02220172

The IEM API webservice that provided data to this page. For more details, see documentation.

Data Notes

  • For recent years, this page also optionally shows observations from the MADIS High Frequency METAR dataset. This dataset had a problem with temperatures detailed here.